Time;durP1;ratioP1;P1;durP2;ratioP2;P2;SDS_P1;SDS_P2;PMS_P1;PMS_P2;Temp;Humidity;BMP_temperature;BMP_pressure;BME280_temperature;BME280_humidity;BME280_pressure;Samples;Min_cycle;Max_cycle;Signal;HPM_P1;HPM_P2
2023/06/28 00:01:09;;;;;;;6.78;1.65;;;17.10;97.40;;;;;;5030061;28;20086;-63
2023/06/28 00:03:35;;;;;;;5.95;1.45;;;17.10;97.40;;;;;;5031305;28;20037;-64
2023/06/28 00:06:01;;;;;;;7.07;1.80;;;17.10;97.40;;;;;;5031202;28;20073;-63
2023/06/28 00:08:26;;;;;;;14.43;1.80;;;17.00;97.60;;;;;;5031254;28;20478;-63
2023/06/28 00:10:53;;;;;;;4.55;1.48;;;17.10;97.70;;;;;;5031598;28;20105;-63
2023/06/28 00:13:18;;;;;;;7.07;1.40;;;17.10;97.70;;;;;;5031653;28;20473;-63
2023/06/28 00:15:45;;;;;;;7.47;1.80;;;17.10;97.80;;;;;;5030975;28;20056;-62
2023/06/28 00:18:11;;;;;;;9.68;1.55;;;17.00;98.00;;;;;;5030970;28;20041;-62
2023/06/28 00:20:37;;;;;;;8.68;1.73;;;17.00;98.00;;;;;;5030782;28;20034;-62
2023/06/28 00:23:03;;;;;;;7.35;1.77;;;17.00;98.10;;;;;;5029938;28;20028;-63
2023/06/28 00:25:29;;;;;;;4.05;1.35;;;16.90;98.30;;;;;;5031354;28;20104;-63
2023/06/28 00:27:54;;;;;;;5.55;1.40;;;16.90;98.20;;;;;;5030726;28;20029;-63
2023/06/28 00:30:20;;;;;;;6.85;1.85;;;17.00;98.30;;;;;;5030615;28;20122;-63
2023/06/28 00:32:46;;;;;;;6.55;1.90;;;16.90;98.50;;;;;;5029523;28;20039;-62
2023/06/28 00:35:12;;;;;;;8.70;1.55;;;16.90;98.60;;;;;;5030687;28;20029;-64
2023/06/28 00:37:37;;;;;;;4.95;1.50;;;16.90;99.00;;;;;;5029843;28;20114;-62
2023/06/28 00:40:07;;;;;;;3.95;1.58;;;16.90;98.70;;;;;;5030949;28;20033;-63
2023/06/28 00:42:32;;;;;;;6.85;1.63;;;16.90;98.80;;;;;;5030358;28;20301;-64
2023/06/28 00:44:59;;;;;;;9.50;1.60;;;16.80;98.80;;;;;;5030326;28;20547;-63
2023/06/28 00:47:29;;;;;;;6.15;1.58;;;16.80;98.90;;;;;;5030416;28;20383;-63
2023/06/28 00:49:56;;;;;;;8.63;1.90;;;16.60;99.30;;;;;;5029209;28;20025;-63
2023/06/28 00:52:22;;;;;;;6.20;1.80;;;16.60;99.30;;;;;;5030789;28;20030;-63
2023/06/28 00:54:48;;;;;;;8.98;1.75;;;16.60;99.50;;;;;;5030206;28;20026;-63
2023/06/28 00:57:15;;;;;;;6.53;1.75;;;16.70;99.50;;;;;;5030082;28;20033;-63
2023/06/28 00:59:41;;;;;;;8.45;1.73;;;16.70;99.60;;;;;;5030445;28;20116;-64
2023/06/28 01:02:07;;;;;;;10.10;2.10;;;16.60;99.60;;;;;;5030206;28;20315;-63
2023/06/28 01:04:36;;;;;;;4.22;2.08;;;16.70;99.40;;;;;;5030573;28;20037;-63
2023/06/28 01:07:03;;;;;;;6.82;1.77;;;16.70;99.50;;;;;;5030031;28;20026;-63
2023/06/28 01:09:30;;;;;;;5.72;1.42;;;16.70;99.30;;;;;;5030416;28;20025;-62
2023/06/28 01:11:57;;;;;;;7.50;1.27;;;16.70;99.40;;;;;;5029899;28;20090;-62
2023/06/28 01:14:24;;;;;;;7.32;1.70;;;16.70;99.30;;;;;;5030212;28;20041;-62
2023/06/28 01:16:54;;;;;;;6.78;2.03;;;16.70;99.40;;;;;;5030245;28;20021;-64
2023/06/28 01:19:23;;;;;;;4.53;1.83;;;16.60;99.60;;;;;;5029929;28;20045;-62
2023/06/28 01:21:51;;;;;;;6.32;1.85;;;16.50;99.60;;;;;;5029874;28;20118;-62
2023/06/28 01:24:16;;;;;;;;;;;16.50;99.60;;;;;;5030341;28;20033;-64
2023/06/28 01:26:43;;;;;;;10.73;1.90;;;16.40;99.80;;;;;;5028838;28;19944;-62
2023/06/28 01:29:09;;;;;;;9.68;3.15;;;16.40;99.70;;;;;;5029684;28;20027;-63
2023/06/28 01:31:36;;;;;;;5.55;1.85;;;16.40;99.80;;;;;;5029978;28;20120;-63
2023/06/28 01:34:02;;;;;;;5.18;1.92;;;16.20;99.90;;;;;;5029856;28;20362;-64
2023/06/28 01:36:29;;;;;;;6.30;1.90;;;16.20;99.90;;;;;;5055546;28;20033;-64
2023/06/28 01:38:56;;;;;;;7.28;1.48;;;16.40;99.70;;;;;;5069923;28;20025;-64
2023/06/28 01:41:23;;;;;;;13.77;1.88;;;16.40;99.50;;;;;;5069797;28;20138;-63
2023/06/28 01:43:49;;;;;;;13.00;2.10;;;16.50;99.50;;;;;;5070137;28;20565;-63
2023/06/28 01:46:15;;;;;;;8.55;2.22;;;16.50;99.60;;;;;;5069831;28;20273;-63
2023/06/28 01:48:40;;;;;;;5.72;1.73;;;16.40;99.70;;;;;;5068522;28;20114;-65
2023/06/28 01:51:06;;;;;;;8.30;2.17;;;16.50;99.50;;;;;;5069482;28;20029;-63
2023/06/28 01:53:32;;;;;;;5.72;1.70;;;16.40;99.70;;;;;;5069580;28;20520;-64
2023/06/28 01:55:58;;;;;;;14.65;2.53;;;16.40;99.80;;;;;;5069719;28;20078;-63
2023/06/28 01:58:23;;;;;;;7.55;1.92;;;16.40;99.70;;;;;;5069849;28;20021;-62
2023/06/28 02:00:49;;;;;;;9.32;2.35;;;16.40;99.80;;;;;;5069471;28;20086;-62
2023/06/28 02:03:15;;;;;;;7.32;1.85;;;16.40;99.80;;;;;;5069522;28;20478;-63
2023/06/28 02:05:40;;;;;;;7.78;1.67;;;16.50;99.60;;;;;;5069688;28;20040;-63
2023/06/28 02:08:06;;;;;;;4.88;1.75;;;16.40;99.80;;;;;;5069327;28;20051;-62
2023/06/28 02:10:33;;;;;;;5.38;1.73;;;16.40;99.70;;;;;;5069915;28;20119;-63
2023/06/28 02:12:59;;;;;;;7.37;1.70;;;16.40;99.80;;;;;;5069463;28;20029;-63
2023/06/28 02:15:24;;;;;;;7.65;2.20;;;16.30;99.90;;;;;;5069298;28;20462;-62
2023/06/28 02:17:55;;;;;;;4.28;1.73;;;16.20;99.90;;;;;;5068374;28;20033;-63
2023/06/28 02:20:21;;;;;;;7.03;2.20;;;16.20;99.90;;;;;;5069350;28;20024;-63
2023/06/28 02:22:47;;;;;;;14.60;2.28;;;16.30;99.90;;;;;;5069615;28;20090;-63
2023/06/28 02:25:12;;;;;;;7.80;2.33;;;16.30;99.90;;;;;;5071229;28;20389;-63
2023/06/28 02:27:38;;;;;;;8.52;2.17;;;16.30;99.90;;;;;;5073044;28;20447;-63
2023/06/28 02:30:04;;;;;;;6.85;2.10;;;16.30;99.90;;;;;;5072944;28;20068;-64
2023/06/28 02:32:30;;;;;;;8.95;2.38;;;16.20;99.90;;;;;;5072915;28;20047;-65
2023/06/28 02:34:57;;;;;;;4.63;1.70;;;16.30;99.90;;;;;;5073046;28;20498;-63
2023/06/28 02:37:24;;;;;;;8.98;2.20;;;16.30;99.90;;;;;;5073359;28;20034;-63
2023/06/28 02:39:50;;;;;;;8.32;1.65;;;16.30;99.90;;;;;;5072973;28;20028;-64
2023/06/28 02:42:16;;;;;;;12.95;2.10;;;16.20;99.90;;;;;;5072922;28;20044;-65
2023/06/28 02:44:41;;;;;;;5.55;1.85;;;16.30;99.90;;;;;;5072945;28;20028;-63
2023/06/28 02:47:07;;;;;;;6.15;2.30;;;16.40;99.90;;;;;;5072861;28;20028;-63
2023/06/28 02:49:33;;;;;;;4.65;1.98;;;16.40;99.90;;;;;;5073332;28;20367;-63
2023/06/28 02:51:58;;;;;;;8.13;2.17;;;16.40;99.80;;;;;;5073060;28;20025;-63
2023/06/28 02:54:24;;;;;;;9.35;1.70;;;16.40;99.90;;;;;;5072648;28;20111;-64
2023/06/28 02:56:50;;;;;;;5.55;2.22;;;16.30;99.90;;;;;;5072695;28;20032;-63
2023/06/28 02:59:16;;;;;;;10.38;2.20;;;16.40;99.70;;;;;;5072140;28;20032;-63
2023/06/28 03:01:41;;;;;;;9.82;2.47;;;16.40;99.90;;;;;;5073233;28;20402;-62
2023/06/28 03:04:07;;;;;;;8.68;2.22;;;16.30;99.90;;;;;;5072519;28;20101;-64
2023/06/28 03:06:34;;;;;;;5.55;2.22;;;16.30;99.90;;;;;;5072140;28;20033;-64
2023/06/28 03:09:00;;;;;;;6.88;2.80;;;16.30;99.90;;;;;;5072548;28;20115;-63
2023/06/28 03:11:26;;;;;;;11.50;2.55;;;16.30;99.90;;;;;;5072367;28;20116;-63
2023/06/28 03:13:52;;;;;;;6.40;2.47;;;16.30;99.90;;;;;;5072856;28;20040;-64
2023/06/28 03:16:17;;;;;;;9.52;2.47;;;16.20;99.90;;;;;;5072067;28;20029;-63
2023/06/28 03:18:43;;;;;;;8.75;1.65;;;16.20;99.90;;;;;;5072258;28;20098;-63
2023/06/28 03:21:09;;;;;;;18.52;2.65;;;16.20;99.90;;;;;;5072149;28;20040;-63
2023/06/28 03:23:34;;;;;;;11.02;2.38;;;16.20;99.90;;;;;;5070666;28;20104;-63
2023/06/28 03:26:00;;;;;;;15.43;2.95;;;16.20;99.90;;;;;;5070317;28;20107;-63
2023/06/28 03:28:26;;;;;;;9.65;2.30;;;16.20;99.90;;;;;;5072415;28;20063;-64
2023/06/28 03:30:51;;;;;;;12.50;2.55;;;16.20;99.90;;;;;;5070633;28;20056;-64
2023/06/28 03:33:17;;;;;;;11.10;2.50;;;16.20;99.90;;;;;;5071690;28;20370;-63
2023/06/28 03:35:43;;;;;;;9.80;2.33;;;16.10;99.90;;;;;;5071345;28;20346;-64
2023/06/28 03:38:08;;;;;;;12.30;2.38;;;16.10;99.90;;;;;;5071549;28;20204;-63
2023/06/28 03:40:36;;;;;;;8.75;2.33;;;16.20;99.90;;;;;;5072436;28;20021;-63
2023/06/28 03:43:02;;;;;;;8.32;2.80;;;16.20;99.90;;;;;;5071808;28;20044;-64
2023/06/28 03:45:29;;;;;;;3.50;1.83;;;16.20;99.90;;;;;;5071565;28;20108;-64
2023/06/28 03:47:54;;;;;;;6.22;2.17;;;16.30;99.90;;;;;;5071587;28;20057;-63
2023/06/28 03:50:20;;;;;;;9.48;2.78;;;16.20;99.90;;;;;;5071427;28;20047;-63
2023/06/28 03:52:46;;;;;;;6.88;2.50;;;16.10;99.90;;;;;;5072186;28;20036;-64
2023/06/28 03:55:12;;;;;;;9.73;2.15;;;16.20;99.90;;;;;;5071586;28;20090;-63
2023/06/28 03:57:37;;;;;;;12.52;3.13;;;16.20;99.90;;;;;;5071434;28;20513;-62
2023/06/28 04:00:07;;;;;;;9.27;2.67;;;16.30;99.90;;;;;;5071350;28;20093;-65
2023/06/28 04:02:33;;;;;;;7.85;3.08;;;16.30;99.90;;;;;;5071183;28;20047;-64
2023/06/28 04:04:59;;;;;;;8.52;2.40;;;16.30;99.90;;;;;;5071396;28;20025;-63
2023/06/28 04:07:24;;;;;;;13.32;2.95;;;16.30;99.90;;;;;;5071668;28;20119;-63
2023/06/28 04:09:53;;;;;;;6.78;2.28;;;16.20;99.90;;;;;;5069732;28;20052;-63
2023/06/28 04:12:19;;;;;;;6.82;2.45;;;16.30;99.90;;;;;;5071054;28;20565;-63
2023/06/28 04:14:44;;;;;;;12.20;3.08;;;16.20;99.90;;;;;;5071118;28;20381;-63
2023/06/28 04:17:10;;;;;;;9.20;2.35;;;16.20;99.90;;;;;;5070854;28;20032;-63
2023/06/28 04:19:36;;;;;;;7.05;2.60;;;16.30;99.90;;;;;;5070318;28;20028;-64
2023/06/28 04:22:01;;;;;;;6.32;2.40;;;16.30;99.90;;;;;;5070615;28;20090;-63
2023/06/28 04:24:27;;;;;;;7.45;2.45;;;16.30;99.90;;;;;;5070893;28;20033;-64
2023/06/28 04:26:53;;;;;;;7.63;2.47;;;16.30;99.90;;;;;;5070839;28;20037;-64
2023/06/28 04:29:18;;;;;;;7.50;2.22;;;16.30;99.90;;;;;;5070617;28;20021;-64
2023/06/28 04:31:44;;;;;;;12.38;2.60;;;16.30;99.90;;;;;;5070995;28;20402;-63
2023/06/28 04:34:10;;;;;;;7.60;2.45;;;16.30;99.90;;;;;;5070683;28;20117;-63
2023/06/28 04:36:39;;;;;;;7.40;2.40;;;16.20;99.90;;;;;;5070458;28;20047;-64
2023/06/28 04:39:05;;;;;;;12.55;2.60;;;16.20;99.90;;;;;;5069636;28;20052;-63
2023/06/28 04:41:31;;;;;;;10.65;2.70;;;16.30;99.90;;;;;;5069304;28;20115;-64
2023/06/28 04:43:58;;;;;;;9.40;2.40;;;16.30;99.90;;;;;;5070828;28;20112;-62
2023/06/28 04:46:26;;;;;;;10.43;2.85;;;16.30;99.90;;;;;;5071151;28;20032;-63
2023/06/28 04:48:53;;;;;;;9.40;2.47;;;16.30;99.90;;;;;;5069849;28;20040;-64
2023/06/28 04:51:19;;;;;;;11.75;2.78;;;16.30;99.90;;;;;;5070587;28;20470;-64
2023/06/28 04:53:46;;;;;;;7.85;3.08;;;16.30;99.90;;;;;;5070215;28;20040;-63
2023/06/28 04:56:14;;;;;;;7.15;2.58;;;16.30;99.90;;;;;;5068812;28;20028;-64
2023/06/28 04:58:40;;;;;;;8.90;2.45;;;16.40;99.90;;;;;;5070741;28;20032;-64
2023/06/28 05:01:07;;;;;;;8.05;2.63;;;16.40;99.90;;;;;;5070293;28;20025;-64
2023/06/28 05:03:38;;;;;;;10.52;2.83;;;16.40;99.90;;;;;;5070237;28;20115;-64
2023/06/28 05:06:08;;;;;;;12.77;2.90;;;16.40;99.90;;;;;;5070362;28;20094;-63
2023/06/28 05:08:34;;;;;;;10.63;2.47;;;16.40;99.90;;;;;;5070221;28;20462;-64
2023/06/28 05:11:01;;;;;;;4.93;2.17;;;16.40;99.90;;;;;;5070576;28;20048;-64
2023/06/28 05:13:27;;;;;;;8.77;2.88;;;16.50;99.90;;;;;;5070691;28;20039;-64
2023/06/28 05:15:52;;;;;;;10.68;3.30;;;16.40;99.90;;;;;;5069943;28;20041;-63
2023/06/28 05:18:19;;;;;;;13.35;2.95;;;16.50;99.90;;;;;;5069970;28;20029;-63
2023/06/28 05:20:45;;;;;;;14.55;3.25;;;16.50;99.90;;;;;;5070051;28;20025;-64
2023/06/28 05:23:16;;;;;;;11.73;3.00;;;16.60;99.90;;;;;;5069843;28;20036;-63
2023/06/28 05:25:43;;;;;;;8.38;2.83;;;16.70;99.90;;;;;;5070269;28;20051;-64
2023/06/28 05:28:12;;;;;;;15.00;3.25;;;16.70;99.90;;;;;;5069643;28;20071;-63
2023/06/28 05:30:39;;;;;;;10.27;3.33;;;16.70;99.90;;;;;;5069796;28;20048;-68
2023/06/28 05:33:05;;;;;;;16.92;2.92;;;16.70;99.90;;;;;;5070006;28;20095;-63
2023/06/28 05:35:34;;;;;;;6.63;2.40;;;16.70;99.90;;;;;;5069897;28;20139;-63
2023/06/28 05:38:02;;;;;;;14.15;2.60;;;16.80;99.90;;;;;;5069699;28;20024;-63
2023/06/28 05:40:29;;;;;;;13.88;3.50;;;16.90;99.90;;;;;;5070215;28;20033;-63
2023/06/28 05:42:55;;;;;;;11.27;3.33;;;17.00;99.90;;;;;;5069649;28;20024;-65
2023/06/28 05:45:21;;;;;;;13.73;4.38;;;17.10;99.90;;;;;;5069406;28;20482;-64
2023/06/28 05:47:47;;;;;;;11.73;3.25;;;17.10;99.90;;;;;;5069588;28;20037;-63
2023/06/28 05:50:15;;;;;;;6.80;2.63;;;17.20;99.90;;;;;;5069774;28;20101;-63
2023/06/28 05:52:41;;;;;;;10.55;3.03;;;17.20;99.90;;;;;;5070354;28;20028;-62
2023/06/28 05:55:07;;;;;;;10.27;2.65;;;17.30;99.90;;;;;;5069706;28;20040;-62
2023/06/28 05:57:32;;;;;;;11.23;2.45;;;17.30;99.90;;;;;;5069414;28;20040;-61
2023/06/28 05:59:58;;;;;;;10.60;2.97;;;17.30;99.90;;;;;;5072844;28;20374;-64
2023/06/28 06:02:26;;;;;;;14.25;2.70;;;17.30;99.90;;;;;;5073334;28;20036;-62
2023/06/28 06:04:51;;;;;;;;;;;17.40;99.90;;;;;;5074396;28;20024;-62
2023/06/28 06:07:17;;;;;;;11.50;2.83;;;17.40;99.90;;;;;;5073550;28;20246;-64
2023/06/28 06:09:43;;;;;;;7.53;2.80;;;17.40;99.90;;;;;;5073601;28;20375;-63
2023/06/28 06:12:09;;;;;;;11.55;3.20;;;17.40;99.90;;;;;;5073432;28;20081;-64
2023/06/28 06:14:34;;;;;;;9.82;3.05;;;17.60;99.90;;;;;;5072434;28;20167;-63
2023/06/28 06:17:00;;;;;;;10.02;2.55;;;17.70;99.90;;;;;;5071838;28;20420;-64
2023/06/28 06:19:26;;;;;;;15.90;3.38;;;17.60;99.90;;;;;;5072650;28;20024;-63
2023/06/28 06:21:51;;;;;;;7.93;2.25;;;17.70;99.80;;;;;;5072259;28;20108;-63
2023/06/28 06:24:17;;;;;;;9.13;2.47;;;17.70;99.90;;;;;;5072994;28;20166;-64
2023/06/28 06:26:43;;;;;;;9.35;2.63;;;17.70;99.90;;;;;;5071766;28;20331;-63
2023/06/28 06:29:08;;;;;;;11.20;2.97;;;17.70;99.90;;;;;;5071702;28;20109;-63
2023/06/28 06:31:34;;;;;;;12.25;2.75;;;17.80;99.90;;;;;;5073117;28;20171;-64
2023/06/28 06:34:01;;;;;;;11.65;2.88;;;17.80;99.80;;;;;;5073051;28;20079;-64
2023/06/28 06:36:29;;;;;;;12.63;3.22;;;17.80;99.70;;;;;;5071916;28;20032;-64
2023/06/28 06:38:59;;;;;;;10.85;2.50;;;17.90;99.80;;;;;;5073023;28;20082;-63
2023/06/28 06:41:25;;;;;;;12.02;2.97;;;18.00;99.70;;;;;;5073069;28;20486;-65
2023/06/28 06:43:51;;;;;;;19.55;3.40;;;18.10;99.60;;;;;;5071897;28;20068;-65
2023/06/28 06:46:20;;;;;;;11.45;3.20;;;18.20;99.50;;;;;;5071396;28;20572;-65
2023/06/28 06:48:46;;;;;;;15.70;2.70;;;18.40;99.40;;;;;;5072886;28;20379;-64
2023/06/28 06:51:12;;;;;;;12.68;2.70;;;18.50;99.20;;;;;;5072632;28;20056;-65
2023/06/28 06:53:37;;;;;;;7.57;2.38;;;18.50;99.10;;;;;;5072570;28;20028;-64
2023/06/28 06:56:03;;;;;;;3.92;1.90;;;18.60;99.00;;;;;;5072575;28;20413;-65
2023/06/28 06:58:29;;;;;;;7.63;2.15;;;18.60;98.80;;;;;;5072864;28;20025;-64
2023/06/28 07:00:55;;;;;;;10.95;2.88;;;18.60;98.60;;;;;;5071238;28;20047;-64
2023/06/28 07:03:20;;;;;;;6.45;2.17;;;18.70;98.70;;;;;;5072451;28;20070;-65
2023/06/28 07:05:46;;;;;;;8.18;1.80;;;18.80;98.50;;;;;;5072307;28;20047;-64
2023/06/28 07:08:12;;;;;;;6.15;2.10;;;18.90;98.40;;;;;;5072267;28;20032;-65
2023/06/28 07:10:38;;;;;;;11.60;2.08;;;18.90;97.90;;;;;;5072125;28;20029;-64
2023/06/28 07:13:03;;;;;;;6.75;1.85;;;18.90;97.60;;;;;;5072129;28;20450;-64
2023/06/28 07:15:29;;;;;;;8.85;1.83;;;19.00;97.50;;;;;;5070831;28;20028;-65
2023/06/28 07:17:55;;;;;;;5.57;1.83;;;19.20;97.60;;;;;;5072010;28;20039;-64
2023/06/28 07:20:21;;;;;;;10.02;2.38;;;19.30;97.50;;;;;;5071923;28;20024;-64
2023/06/28 07:22:47;;;;;;;14.10;3.08;;;19.30;97.30;;;;;;5072191;28;20028;-64
2023/06/28 07:25:13;;;;;;;14.20;2.67;;;19.40;97.40;;;;;;5071805;28;20285;-63
2023/06/28 07:27:39;;;;;;;10.27;2.40;;;19.40;97.30;;;;;;5071963;28;20036;-63
2023/06/28 07:30:07;;;;;;;12.50;2.15;;;19.50;97.20;;;;;;5071839;28;20045;-63
2023/06/28 07:32:33;;;;;;;8.15;2.25;;;19.50;97.00;;;;;;5071845;28;20025;-64
2023/06/28 07:34:59;;;;;;;5.82;1.98;;;19.50;96.80;;;;;;5072018;28;20028;-63
2023/06/28 07:37:25;;;;;;;7.20;1.65;;;19.50;96.80;;;;;;5072037;28;20032;-64
2023/06/28 07:39:51;;;;;;;8.02;2.00;;;19.50;96.30;;;;;;5071354;28;20078;-64
2023/06/28 07:42:18;;;;;;;9.30;2.20;;;19.50;96.30;;;;;;5071483;28;20090;-64
2023/06/28 07:44:44;;;;;;;12.07;2.08;;;19.60;96.00;;;;;;5071544;28;20036;-63
2023/06/28 07:47:10;;;;;;;6.93;1.88;;;19.60;95.50;;;;;;5070459;28;20525;-64
2023/06/28 07:49:35;;;;;;;10.63;2.28;;;19.60;96.00;;;;;;5072067;28;20095;-62
2023/06/28 07:52:01;;;;;;;8.20;2.00;;;19.70;95.70;;;;;;5071583;28;20481;-63
2023/06/28 07:54:27;;;;;;;5.93;1.85;;;19.90;95.70;;;;;;5071395;28;20029;-63
2023/06/28 07:56:52;;;;;;;6.30;2.30;;;20.00;94.90;;;;;;5071384;28;20124;-63
2023/06/28 07:59:19;;;;;;;4.78;1.60;;;20.10;94.70;;;;;;5070344;28;20043;-62
2023/06/28 08:01:46;;;;;;;2.42;1.33;;;20.30;94.50;;;;;;5070704;28;20427;-63
2023/06/28 08:04:12;;;;;;;6.35;1.42;;;20.40;93.80;;;;;;5071722;28;20036;-64
2023/06/28 08:06:37;;;;;;;4.05;1.23;;;20.40;93.50;;;;;;5071481;28;20029;-62
2023/06/28 08:09:03;;;;;;;8.23;1.23;;;20.70;93.60;;;;;;5071354;28;20037;-63
2023/06/28 08:11:29;;;;;;;12.48;1.60;;;20.90;93.50;;;;;;5071050;28;20029;-64
2023/06/28 08:13:54;;;;;;;4.03;1.23;;;21.10;92.90;;;;;;5069720;28;20025;-63
2023/06/28 08:16:20;;;;;;;5.90;1.25;;;21.00;92.40;;;;;;5071290;28;20423;-64
2023/06/28 08:18:46;;;;;;;9.20;1.00;;;21.00;92.60;;;;;;5070908;28;20028;-64
2023/06/28 08:21:14;;;;;;;5.60;1.75;;;21.10;92.20;;;;;;5071130;28;20025;-63
2023/06/28 08:23:39;;;;;;;;;;;21.10;91.10;;;;;;5070520;28;20089;-64
2023/06/28 08:26:05;;;;;;;9.25;1.52;;;21.20;90.60;;;;;;5070815;28;19994;-63
2023/06/28 08:28:31;;;;;;;6.90;1.58;;;21.30;90.60;;;;;;5071162;28;20032;-63
2023/06/28 08:30:57;;;;;;;8.77;2.47;;;21.30;90.90;;;;;;5070500;28;20210;-62
2023/06/28 08:33:24;;;;;;;8.32;2.13;;;21.60;89.80;;;;;;5070590;28;20530;-62
2023/06/28 08:35:50;;;;;;;4.73;0.70;;;22.00;89.20;;;;;;5070973;28;20032;-64
2023/06/28 08:38:16;;;;;;;5.60;1.40;;;22.60;88.20;;;;;;5070835;28;20323;-64
2023/06/28 08:40:41;;;;;;;4.72;1.15;;;22.90;86.60;;;;;;5070878;28;20139;-62
2023/06/28 08:43:12;;;;;;;5.38;1.67;;;23.80;84.80;;;;;;5070312;28;20055;-63
2023/06/28 08:45:38;;;;;;;5.80;1.05;;;24.20;83.60;;;;;;5070310;28;20047;-62
2023/06/28 08:48:05;;;;;;;5.53;1.10;;;24.40;80.50;;;;;;5070252;28;20032;-64
2023/06/28 08:50:31;;;;;;;3.60;1.23;;;24.80;78.70;;;;;;5070316;28;20037;-64
2023/06/28 08:52:58;;;;;;;4.28;1.55;;;25.00;78.40;;;;;;5070964;28;20028;-64
2023/06/28 08:55:25;;;;;;;3.17;1.00;;;25.60;79.00;;;;;;5070641;28;20025;-63
2023/06/28 08:57:52;;;;;;;4.53;0.65;;;26.50;78.10;;;;;;5070251;28;20403;-65
2023/06/28 09:00:17;;;;;;;4.47;1.23;;;27.10;73.80;;;;;;5070391;28;20386;-64
2023/06/28 09:02:44;;;;;;;2.65;1.08;;;26.80;72.40;;;;;;5070099;28;20262;-64
2023/06/28 09:05:10;;;;;;;12.45;2.75;;;27.10;71.70;;;;;;5070408;28;20410;-64
2023/06/28 09:07:42;;;;;;;5.57;1.45;;;27.50;72.10;;;;;;5069554;28;20024;-63
2023/06/28 09:10:09;;;;;;;1.70;1.00;;;27.90;68.60;;;;;;5070076;28;20104;-64
2023/06/28 09:12:35;;;;;;;9.48;1.42;;;27.50;68.70;;;;;;5069990;28;20493;-65
2023/06/28 09:15:03;;;;;;;3.53;1.10;;;27.50;66.50;;;;;;5070000;28;20060;-65
2023/06/28 09:17:29;;;;;;;5.38;0.80;;;27.20;67.30;;;;;;5069774;28;20036;-65
2023/06/28 09:20:19;;;;;;;6.18;1.23;;;26.80;68.30;;;;;;5070061;28;20034;-65
2023/06/28 09:23:21;;;;;;;7.00;1.45;;;26.90;69.40;;;;;;5068435;28;20029;-64
2023/06/28 09:25:49;;;;;;;3.95;1.30;;;27.10;68.60;;;;;;5059690;28;20072;-63
2023/06/28 09:28:16;;;;;;;3.78;1.25;;;27.30;69.00;;;;;;5069731;28;20035;-64
2023/06/28 09:30:41;;;;;;;5.55;1.25;;;26.90;68.60;;;;;;5069629;28;20105;-62
2023/06/28 09:33:07;;;;;;;19.90;1.80;;;26.60;69.50;;;;;;5069445;28;20040;-65
2023/06/28 09:35:36;;;;;;;3.33;1.10;;;26.80;69.70;;;;;;5069797;28;20060;-64
2023/06/28 09:38:07;;;;;;;10.88;1.48;;;26.60;69.10;;;;;;5069975;28;20028;-65
2023/06/28 09:40:36;;;;;;;3.65;0.90;;;26.20;67.90;;;;;;5070373;28;20036;-63
2023/06/28 09:43:03;;;;;;;8.50;1.98;;;26.00;69.50;;;;;;5069670;28;20033;-63
2023/06/28 09:45:30;;;;;;;11.55;3.72;;;26.10;70.10;;;;;;5068740;28;20090;-63
2023/06/28 09:47:58;;;;;;;3.38;1.33;;;26.20;69.70;;;;;;5069473;28;20374;-63
2023/06/28 09:50:43;;;;;;;7.28;1.27;;;26.00;69.60;;;;;;5069767;28;20448;-63
2023/06/28 09:53:12;;;;;;;14.45;2.22;;;25.60;71.20;;;;;;5070096;28;20028;-63
2023/06/28 09:55:43;;;;;;;6.97;1.90;;;25.80;71.90;;;;;;5068732;28;20017;-63
2023/06/28 09:58:13;;;;;;;4.07;1.70;;;25.80;71.20;;;;;;5069464;28;20390;-63
2023/06/28 10:00:40;;;;;;;8.15;1.55;;;25.50;71.90;;;;;;5068370;28;20340;-64
2023/06/28 10:03:11;;;;;;;3.80;1.17;;;25.20;71.40;;;;;;5067963;28;20104;-64
2023/06/28 10:05:38;;;;;;;5.28;1.33;;;25.40;71.80;;;;;;5069737;28;20081;-64
2023/06/28 10:08:08;;;;;;;34.40;3.67;;;25.60;72.00;;;;;;5069351;28;20615;-63
2023/06/28 10:10:35;;;;;;;4.97;1.40;;;25.70;72.90;;;;;;5069851;28;20028;-64
2023/06/28 10:13:02;;;;;;;5.68;1.48;;;25.60;72.90;;;;;;5068353;28;20082;-63
2023/06/28 10:15:37;;;;;;;9.80;1.75;;;25.10;72.10;;;;;;5069337;28;20429;-64
2023/06/28 10:18:04;;;;;;;7.47;1.92;;;24.70;73.90;;;;;;5069031;28;20029;-63
2023/06/28 10:20:29;;;;;;;6.57;1.30;;;24.60;73.70;;;;;;5069260;28;20057;-64
2023/06/28 10:22:57;;;;;;;6.03;2.10;;;24.60;74.60;;;;;;5067941;28;20387;-63
2023/06/28 10:25:23;;;;;;;8.00;2.65;;;24.60;74.20;;;;;;5069510;28;20020;-63
2023/06/28 10:27:49;;;;;;;4.70;1.63;;;24.70;74.20;;;;;;5068953;28;20082;-64
2023/06/28 10:30:15;;;;;;;5.32;1.75;;;24.90;74.40;;;;;;5068957;28;20473;-64
2023/06/28 10:32:43;;;;;;;13.98;1.70;;;24.90;74.30;;;;;;5069215;28;20405;-64
2023/06/28 10:35:10;;;;;;;3.58;1.52;;;24.90;74.10;;;;;;5069187;28;20463;-63
2023/06/28 10:37:36;;;;;;;10.00;2.05;;;24.90;74.70;;;;;;5069555;28;20029;-64
2023/06/28 10:40:04;;;;;;;6.72;2.03;;;24.60;74.00;;;;;;5068939;28;20032;-63
2023/06/28 10:42:38;;;;;;;4.70;1.25;;;24.90;74.40;;;;;;5069004;28;20033;-64
2023/06/28 10:45:05;;;;;;;11.80;2.67;;;25.10;73.20;;;;;;5069253;28;20036;-63
2023/06/28 10:47:34;;;;;;;17.42;3.55;;;25.30;72.90;;;;;;5072832;28;20036;-64
2023/06/28 10:50:07;;;;;;;11.20;1.65;;;25.40;73.20;;;;;;5072860;28;20410;-63
2023/06/28 10:52:33;;;;;;;6.15;1.98;;;25.20;73.00;;;;;;5073274;28;20020;-63
2023/06/28 10:55:00;;;;;;;4.30;1.65;;;25.00;73.90;;;;;;5072647;28;20466;-63
2023/06/28 10:58:05;;;;;;;7.63;2.00;;;24.50;74.80;;;;;;5072290;28;20051;-63
2023/06/28 11:00:39;;;;;;;4.40;1.50;;;24.60;76.40;;;;;;5060143;28;20062;-63
2023/06/28 11:03:06;;;;;;;4.93;1.40;;;24.50;77.00;;;;;;5072445;28;20028;-64
2023/06/28 11:05:45;;;;;;;4.17;1.57;;;24.70;76.30;;;;;;5072667;28;20044;-63
2023/06/28 11:08:15;;;;;;;5.38;1.38;;;24.60;75.60;;;;;;5071212;28;20031;-64
2023/06/28 11:10:53;;;;;;;4.63;1.55;;;24.70;75.00;;;;;;5071736;28;20218;-63
2023/06/28 11:13:39;;;;;;;6.55;1.75;;;24.50;75.00;;;;;;5072803;28;20120;-63
2023/06/28 11:16:10;;;;;;;4.53;1.43;;;24.60;75.40;;;;;;5071912;28;20052;-63
2023/06/28 11:18:37;;;;;;;6.43;1.55;;;24.30;75.10;;;;;;5072346;28;20331;-64
2023/06/28 11:21:03;;;;;;;2.77;1.47;;;24.10;74.90;;;;;;5072158;28;20047;-63
2023/06/28 11:23:29;;;;;;;5.00;1.33;;;24.20;75.30;;;;;;5070967;28;20572;-63
2023/06/28 11:26:01;;;;;;;3.78;1.30;;;24.00;74.40;;;;;;5071712;28;20133;-63
2023/06/28 11:28:31;;;;;;;3.90;1.38;;;23.70;73.80;;;;;;5072407;28;20203;-63
2023/06/28 11:31:14;;;;;;;4.35;1.20;;;23.90;73.70;;;;;;5071870;28;20048;-63
2023/06/28 11:33:41;;;;;;;4.95;1.30;;;23.90;74.40;;;;;;5072024;28;20086;-65
2023/06/28 11:36:07;;;;;;;7.13;1.35;;;24.00;74.60;;;;;;5072055;28;20358;-64
2023/06/28 11:38:34;;;;;;;4.82;1.42;;;24.20;75.10;;;;;;5072142;28;20040;-63
2023/06/28 11:41:00;;;;;;;4.25;1.10;;;24.20;74.50;;;;;;5072111;28;20028;-65
2023/06/28 11:43:26;;;;;;;1.92;1.10;;;24.20;74.30;;;;;;5072407;28;20017;-63
2023/06/28 11:45:52;;;;;;;5.65;1.50;;;24.30;73.80;;;;;;5071952;28;20510;-62
2023/06/28 11:48:21;;;;;;;4.85;1.60;;;24.20;74.10;;;;;;5071856;28;20414;-63
2023/06/28 11:51:05;;;;;;;6.15;1.42;;;24.40;74.30;;;;;;5070686;28;20128;-63
2023/06/28 11:53:31;;;;;;;3.65;1.13;;;24.60;74.50;;;;;;5072075;28;20032;-64
2023/06/28 11:55:58;;;;;;;6.53;1.60;;;24.60;74.50;;;;;;5070469;28;20067;-63
2023/06/28 11:58:33;;;;;;;3.20;1.10;;;24.40;74.40;;;;;;5070741;28;20025;-63
2023/06/28 12:01:01;;;;;;;5.18;1.40;;;24.50;74.60;;;;;;5070500;28;20154;-64
2023/06/28 12:03:33;;;;;;;3.67;1.00;;;24.50;74.40;;;;;;5071844;28;20024;-64
2023/06/28 12:06:00;;;;;;;5.85;1.35;;;24.50;74.00;;;;;;5071698;28;20047;-63
2023/06/28 12:08:36;;;;;;;8.68;1.60;;;24.50;74.50;;;;;;5071535;28;20571;-64
2023/06/28 12:11:09;;;;;;;5.45;1.35;;;24.50;74.40;;;;;;5071518;28;20461;-63
2023/06/28 12:13:35;;;;;;;5.40;1.50;;;24.60;74.20;;;;;;5070764;28;20104;-63
2023/06/28 12:16:17;;;;;;;6.60;1.65;;;24.70;73.50;;;;;;5071302;28;20131;-63
2023/06/28 12:18:57;;;;;;;4.70;1.67;;;24.60;73.50;;;;;;5070075;28;20043;-63
2023/06/28 12:21:24;;;;;;;5.50;1.17;;;24.80;73.20;;;;;;5071145;28;20481;-64
2023/06/28 12:23:50;;;;;;;4.50;0.93;;;24.80;72.00;;;;;;5071020;28;20114;-64
2023/06/28 12:26:16;;;;;;;4.18;2.05;;;24.80;71.50;;;;;;5071162;28;20098;-63
2023/06/28 12:28:48;;;;;;;3.55;1.60;;;24.60;72.40;;;;;;5070408;28;20020;-63
2023/06/28 12:31:15;;;;;;;9.65;3.20;;;24.60;73.30;;;;;;5069622;28;20522;-63
2023/06/28 12:33:41;;;;;;;8.98;1.90;;;24.40;73.60;;;;;;5071231;28;20056;-63
2023/06/28 12:36:11;;;;;;;6.85;1.73;;;24.50;73.80;;;;;;5070530;28;20403;-64
2023/06/28 12:38:43;;;;;;;6.60;1.30;;;24.40;72.90;;;;;;5071141;28;20028;-64
2023/06/28 12:41:11;;;;;;;5.10;1.55;;;24.40;72.30;;;;;;5069576;28;20029;-64
2023/06/28 12:43:36;;;;;;;;;;;24.60;72.20;;;;;;5072065;28;20033;-63
2023/06/28 12:46:03;;;;;;;6.65;1.27;;;24.60;72.00;;;;;;5070554;28;19913;-64